sensor_id;sensor_type;location;lat;lon;timestamp;pressure;altitude;pressure_sealevel;temperature;humidity
6224;BME280;3145;42.726;23.342;2023-05-09T00:01:20;72524.63;;;-142.70;76.15
6224;BME280;3145;42.726;23.342;2023-05-09T00:03:47;72532.69;;;-142.70;76.47
6224;BME280;3145;42.726;23.342;2023-05-09T00:06:15;72532.69;;;-142.70;76.54
6224;BME280;3145;42.726;23.342;2023-05-09T00:08:42;72524.63;;;-142.70;76.75
6224;BME280;3145;42.726;23.342;2023-05-09T00:11:09;72520.59;;;-142.70;76.75
6224;BME280;3145;42.726;23.342;2023-05-09T00:13:35;72524.63;;;-142.70;76.84
6224;BME280;3145;42.726;23.342;2023-05-09T00:16:05;72522.63;;;-142.70;76.54
6224;BME280;3145;42.726;23.342;2023-05-09T00:18:31;72528.66;;;-142.70;76.33
6224;BME280;3145;42.726;23.342;2023-05-09T00:21:01;72518.59;;;-142.70;76.13
6224;BME280;3145;42.726;23.342;2023-05-09T00:23:28;72520.59;;;-142.70;76.64
6224;BME280;3145;42.726;23.342;2023-05-09T00:25:55;72518.59;;;-142.70;76.81
6224;BME280;3145;42.726;23.342;2023-05-09T00:28:21;72512.56;;;-142.70;76.58
6224;BME280;3145;42.726;23.342;2023-05-09T00:30:48;72508.53;;;-142.70;76.32
6224;BME280;3145;42.726;23.342;2023-05-09T00:33:16;72504.50;;;-142.70;76.07
6224;BME280;3145;42.726;23.342;2023-05-09T00:35:43;72508.53;;;-142.70;76.13
6224;BME280;3145;42.726;23.342;2023-05-09T00:38:10;72512.56;;;-142.70;75.51
6224;BME280;3145;42.726;23.342;2023-05-09T00:40:36;72510.53;;;-142.70;76.08
6224;BME280;3145;42.726;23.342;2023-05-09T00:43:03;72520.59;;;-142.70;76.44
6224;BME280;3145;42.726;23.342;2023-05-09T00:45:30;72538.75;;;-142.70;75.09
6224;BME280;3145;42.726;23.342;2023-05-09T00:47:57;72548.81;;;-142.70;75.09
6224;BME280;3145;42.726;23.342;2023-05-09T00:50:25;72556.88;;;-142.70;75.84
6224;BME280;3145;42.726;23.342;2023-05-09T00:52:51;72564.94;;;-142.70;75.84
6224;BME280;3145;42.726;23.342;2023-05-09T00:55:18;72572.97;;;-142.70;75.80
6224;BME280;3145;42.726;23.342;2023-05-09T00:57:45;72585.06;;;-142.70;76.32
6224;BME280;3145;42.726;23.342;2023-05-09T01:00:13;72595.16;;;-142.70;76.10
6224;BME280;3145;42.726;23.342;2023-05-09T01:02:40;72591.13;;;-142.70;75.65
6224;BME280;3145;42.726;23.342;2023-05-09T01:05:08;72595.16;;;-142.70;75.87
6224;BME280;3145;42.726;23.342;2023-05-09T01:07:40;72591.13;;;-142.70;76.32
6224;BME280;3145;42.726;23.342;2023-05-09T01:10:14;72587.09;;;-142.70;76.58
6224;BME280;3145;42.726;23.342;2023-05-09T01:12:46;72585.06;;;-142.70;76.37
6224;BME280;3145;42.726;23.342;2023-05-09T01:15:18;72585.06;;;-142.70;76.51
6224;BME280;3145;42.726;23.342;2023-05-09T01:17:54;72585.06;;;-142.70;76.72
6224;BME280;3145;42.726;23.342;2023-05-09T01:20:29;72579.03;;;-142.70;77.16
6224;BME280;3145;42.726;23.342;2023-05-09T01:23:30;72564.94;;;-142.70;77.63
6224;BME280;3145;42.726;23.342;2023-05-09T01:26:04;72552.84;;;-142.70;77.58
6224;BME280;3145;42.726;23.342;2023-05-09T01:28:47;72536.72;;;-142.70;77.67
6224;BME280;3145;42.726;23.342;2023-05-09T01:31:23;72528.66;;;-142.70;77.55
6224;BME280;3145;42.726;23.342;2023-05-09T01:33:53;72520.59;;;-142.70;75.38
6224;BME280;3145;42.726;23.342;2023-05-09T01:36:20;72524.63;;;-142.70;74.52
6224;BME280;3145;42.726;23.342;2023-05-09T01:38:47;72526.66;;;-142.70;74.20
6224;BME280;3145;42.726;23.342;2023-05-09T01:41:16;72544.78;;;-142.70;74.08
6224;BME280;3145;42.726;23.342;2023-05-09T01:43:45;72550.81;;;-142.70;74.29
6224;BME280;3145;42.726;23.342;2023-05-09T01:46:15;72556.88;;;-142.70;73.83
6224;BME280;3145;42.726;23.342;2023-05-09T01:48:44;72560.91;;;-142.70;73.98
6224;BME280;3145;42.726;23.342;2023-05-09T01:51:12;72575.00;;;-142.70;73.62
6224;BME280;3145;42.726;23.342;2023-05-09T01:53:41;72581.03;;;-142.70;73.56
6224;BME280;3145;42.726;23.342;2023-05-09T01:56:08;72581.03;;;-142.70;74.02
6224;BME280;3145;42.726;23.342;2023-05-09T01:58:37;72577.00;;;-142.70;74.09
6224;BME280;3145;42.726;23.342;2023-05-09T02:01:05;72572.97;;;-142.70;73.95
6224;BME280;3145;42.726;23.342;2023-05-09T02:03:33;72572.97;;;-142.70;73.49
6224;BME280;3145;42.726;23.342;2023-05-09T02:06:03;72570.97;;;-142.70;74.46
6224;BME280;3145;42.726;23.342;2023-05-09T02:08:30;72581.03;;;-142.70;74.23
6224;BME280;3145;42.726;23.342;2023-05-09T02:10:58;72581.03;;;-142.70;74.42
6224;BME280;3145;42.726;23.342;2023-05-09T02:13:24;72591.13;;;-142.70;74.13
6224;BME280;3145;42.726;23.342;2023-05-09T02:15:51;72583.06;;;-142.70;74.01
6224;BME280;3145;42.726;23.342;2023-05-09T02:18:19;72583.06;;;-142.70;74.40
6224;BME280;3145;42.726;23.342;2023-05-09T02:20:46;72581.03;;;-142.70;74.16
6224;BME280;3145;42.726;23.342;2023-05-09T02:23:14;72572.97;;;-142.70;74.88
6224;BME280;3145;42.726;23.342;2023-05-09T02:25:41;72566.94;;;-142.70;74.39
6224;BME280;3145;42.726;23.342;2023-05-09T02:28:09;72566.94;;;-142.70;74.23
6224;BME280;3145;42.726;23.342;2023-05-09T02:30:40;72558.88;;;-142.70;74.18
6224;BME280;3145;42.726;23.342;2023-05-09T02:33:09;72552.84;;;-142.70;74.45
6224;BME280;3145;42.726;23.342;2023-05-09T02:35:38;72542.75;;;-142.70;74.80
6224;BME280;3145;42.726;23.342;2023-05-09T02:38:07;72540.75;;;-142.70;74.33
6224;BME280;3145;42.726;23.342;2023-05-09T02:40:35;72532.69;;;-142.70;74.13
6224;BME280;3145;42.726;23.342;2023-05-09T02:43:02;72528.66;;;-142.70;73.48
6224;BME280;3145;42.726;23.342;2023-05-09T02:45:29;72536.72;;;-142.70;73.02
6224;BME280;3145;42.726;23.342;2023-05-09T02:47:56;72575.00;;;-142.70;73.66
6224;BME280;3145;42.726;23.342;2023-05-09T02:50:23;72587.09;;;-142.70;73.91
6224;BME280;3145;42.726;23.342;2023-05-09T02:52:50;72609.25;;;-142.70;74.28
6224;BME280;3145;42.726;23.342;2023-05-09T02:55:16;72629.38;;;-142.70;76.02
6224;BME280;3145;42.726;23.342;2023-05-09T02:57:44;72637.44;;;-142.70;76.61
6224;BME280;3145;42.726;23.342;2023-05-09T03:00:12;72641.47;;;-142.70;77.22
6224;BME280;3145;42.726;23.342;2023-05-09T03:02:39;72645.50;;;-142.70;78.43
6224;BME280;3145;42.726;23.342;2023-05-09T03:05:06;72681.78;;;-142.70;79.76
6224;BME280;3145;42.726;23.342;2023-05-09T03:07:33;72681.78;;;-142.70;80.99
6224;BME280;3145;42.726;23.342;2023-05-09T03:10:00;72701.91;;;-142.70;81.71
6224;BME280;3145;42.726;23.342;2023-05-09T03:12:26;72712.00;;;-142.70;82.88
6224;BME280;3145;42.726;23.342;2023-05-09T03:14:55;72714.00;;;-142.70;83.51
6224;BME280;3145;42.726;23.342;2023-05-09T03:17:21;72726.09;;;-142.70;84.25
6224;BME280;3145;42.726;23.342;2023-05-09T03:19:48;72720.06;;;-142.70;84.98
6224;BME280;3145;42.726;23.342;2023-05-09T03:22:15;72718.03;;;-142.70;85.33
6224;BME280;3145;42.726;23.342;2023-05-09T03:24:41;72720.06;;;-142.70;85.33
6224;BME280;3145;42.726;23.342;2023-05-09T03:27:08;72718.03;;;-142.70;85.35
6224;BME280;3145;42.726;23.342;2023-05-09T03:29:35;72718.03;;;-142.70;85.10
6224;BME280;3145;42.726;23.342;2023-05-09T03:32:03;72728.09;;;-142.70;84.61
6224;BME280;3145;42.726;23.342;2023-05-09T03:34:30;72716.03;;;-142.70;84.75
6224;BME280;3145;42.726;23.342;2023-05-09T03:36:57;72722.06;;;-142.70;83.87
6224;BME280;3145;42.726;23.342;2023-05-09T03:39:24;72703.94;;;-142.70;83.58
6224;BME280;3145;42.726;23.342;2023-05-09T03:41:51;72705.94;;;-142.70;83.58
6224;BME280;3145;42.726;23.342;2023-05-09T03:44:18;72707.97;;;-142.70;83.55
6224;BME280;3145;42.726;23.342;2023-05-09T03:46:44;72701.91;;;-142.70;83.77
6224;BME280;3145;42.726;23.342;2023-05-09T03:49:12;72705.94;;;-142.70;83.31
6224;BME280;3145;42.726;23.342;2023-05-09T03:51:39;72703.94;;;-142.70;82.90
6224;BME280;3145;42.726;23.342;2023-05-09T03:54:06;72691.84;;;-142.70;82.88
6224;BME280;3145;42.726;23.342;2023-05-09T03:56:33;72693.84;;;-142.70;82.56
6224;BME280;3145;42.726;23.342;2023-05-09T03:58:59;72689.84;;;-142.70;82.53
6224;BME280;3145;42.726;23.342;2023-05-09T04:01:26;72699.91;;;-142.70;82.56
6224;BME280;3145;42.726;23.342;2023-05-09T04:03:53;72709.97;;;-142.70;82.30
6224;BME280;3145;42.726;23.342;2023-05-09T04:06:23;72699.91;;;-142.70;82.72
6224;BME280;3145;42.726;23.342;2023-05-09T04:08:49;72693.84;;;-142.70;82.11
6224;BME280;3145;42.726;23.342;2023-05-09T04:11:16;72673.72;;;-142.70;81.75
6224;BME280;3145;42.726;23.342;2023-05-09T04:13:43;72665.66;;;-142.70;80.65
6224;BME280;3145;42.726;23.342;2023-05-09T04:16:10;72695.88;;;-142.70;80.50
6224;BME280;3145;42.726;23.342;2023-05-09T04:18:36;72681.78;;;-142.70;80.67
6224;BME280;3145;42.726;23.342;2023-05-09T04:21:04;72677.75;;;-142.70;79.56
6224;BME280;3145;42.726;23.342;2023-05-09T04:23:32;72693.84;;;-142.70;79.84
6224;BME280;3145;42.726;23.342;2023-05-09T04:25:59;72697.88;;;-142.70;80.27
6224;BME280;3145;42.726;23.342;2023-05-09T04:28:25;72709.97;;;-142.70;80.22
6224;BME280;3145;42.726;23.342;2023-05-09T04:30:52;72716.03;;;-142.70;80.68
6224;BME280;3145;42.726;23.342;2023-05-09T04:33:19;72701.91;;;-142.70;81.36
6224;BME280;3145;42.726;23.342;2023-05-09T04:35:48;72687.81;;;-142.70;81.62
6224;BME280;3145;42.726;23.342;2023-05-09T04:38:15;72679.75;;;-142.70;80.70
6224;BME280;3145;42.726;23.342;2023-05-09T04:40:43;72671.69;;;-142.70;80.28
6224;BME280;3145;42.726;23.342;2023-05-09T04:43:10;72683.78;;;-142.70;79.59
6224;BME280;3145;42.726;23.342;2023-05-09T04:45:37;72697.88;;;-142.70;79.36
6224;BME280;3145;42.726;23.342;2023-05-09T04:48:04;72689.84;;;-142.70;79.19
6224;BME280;3145;42.726;23.342;2023-05-09T04:50:31;72681.78;;;-142.70;79.39
6224;BME280;3145;42.726;23.342;2023-05-09T04:52:57;72685.81;;;-142.70;79.19
6224;BME280;3145;42.726;23.342;2023-05-09T04:55:24;72675.72;;;-142.70;78.71
6224;BME280;3145;42.726;23.342;2023-05-09T04:57:52;72685.81;;;-142.70;78.86
6224;BME280;3145;42.726;23.342;2023-05-09T05:00:19;72685.81;;;-142.70;79.21
6224;BME280;3145;42.726;23.342;2023-05-09T05:02:45;72679.75;;;-142.70;79.01
6224;BME280;3145;42.726;23.342;2023-05-09T05:05:12;72669.69;;;-142.70;78.58
6224;BME280;3145;42.726;23.342;2023-05-09T05:07:39;72673.72;;;-142.70;78.10
6224;BME280;3145;42.726;23.342;2023-05-09T05:10:06;72649.53;;;-142.70;78.30
6224;BME280;3145;42.726;23.342;2023-05-09T05:12:33;72637.44;;;-142.70;77.95
6224;BME280;3145;42.726;23.342;2023-05-09T05:15:02;72623.34;;;-142.70;78.16
6224;BME280;3145;42.726;23.342;2023-05-09T05:17:28;72617.31;;;-142.70;77.90
6224;BME280;3145;42.726;23.342;2023-05-09T05:19:55;72605.22;;;-142.70;78.07
6224;BME280;3145;42.726;23.342;2023-05-09T05:22:22;72615.28;;;-142.70;76.29
6224;BME280;3145;42.726;23.342;2023-05-09T05:24:49;72637.44;;;-142.70;75.10
6224;BME280;3145;42.726;23.342;2023-05-09T05:27:16;72643.50;;;-142.70;75.42
6224;BME280;3145;42.726;23.342;2023-05-09T05:29:42;72641.47;;;-142.70;75.48
6224;BME280;3145;42.726;23.342;2023-05-09T05:32:11;72645.50;;;-142.70;75.50
6224;BME280;3145;42.726;23.342;2023-05-09T05:34:37;72641.47;;;-142.70;75.31
6224;BME280;3145;42.726;23.342;2023-05-09T05:37:04;72639.47;;;-142.70;74.63
6224;BME280;3145;42.726;23.342;2023-05-09T05:39:31;72629.38;;;-142.70;74.87
6224;BME280;3145;42.726;23.342;2023-05-09T05:41:57;72635.44;;;-142.70;74.60
6224;BME280;3145;42.726;23.342;2023-05-09T05:44:24;72645.50;;;-142.70;75.29
6224;BME280;3145;42.726;23.342;2023-05-09T05:46:51;72637.44;;;-142.70;74.94
6224;BME280;3145;42.726;23.342;2023-05-09T05:49:19;72627.38;;;-142.70;75.06
6224;BME280;3145;42.726;23.342;2023-05-09T05:51:46;72619.31;;;-142.70;74.82
6224;BME280;3145;42.726;23.342;2023-05-09T05:54:12;72611.25;;;-142.70;74.83
6224;BME280;3145;42.726;23.342;2023-05-09T05:56:39;72605.22;;;-142.70;73.76
6224;BME280;3145;42.726;23.342;2023-05-09T05:59:06;72605.22;;;-142.70;72.92
6224;BME280;3145;42.726;23.342;2023-05-09T06:01:32;72599.16;;;-142.70;72.29
6224;BME280;3145;42.726;23.342;2023-05-09T06:03:59;72583.06;;;-142.70;72.97
6224;BME280;3145;42.726;23.342;2023-05-09T06:06:27;72556.88;;;-142.70;71.03
6224;BME280;3145;42.726;23.342;2023-05-09T06:08:54;72544.78;;;-142.70;69.92
6224;BME280;3145;42.726;23.342;2023-05-09T06:11:22;72516.56;;;-142.70;70.45
6224;BME280;3145;42.726;23.342;2023-05-09T06:13:48;72433.97;;;-142.70;68.76
6224;BME280;3145;42.726;23.342;2023-05-09T06:16:15;72375.56;;;-142.70;67.23
6224;BME280;3145;42.726;23.342;2023-05-09T06:18:42;72427.94;;;-142.70;66.15
6224;BME280;3145;42.726;23.342;2023-05-09T06:21:09;72460.16;;;-142.70;67.85
6224;BME280;3145;42.726;23.342;2023-05-09T06:23:37;72508.53;;;-142.70;68.25
6224;BME280;3145;42.726;23.342;2023-05-09T06:26:04;72520.59;;;-142.70;68.39
6224;BME280;3145;42.726;23.342;2023-05-09T06:28:31;72524.63;;;-142.70;69.32
6224;BME280;3145;42.726;23.342;2023-05-09T06:30:57;72492.41;;;-142.70;69.46
6224;BME280;3145;42.726;23.342;2023-05-09T06:33:25;72480.31;;;-142.70;67.98
6224;BME280;3145;42.726;23.342;2023-05-09T06:35:51;72500.47;;;-142.70;68.59
6224;BME280;3145;42.726;23.342;2023-05-09T06:38:18;72490.38;;;-142.70;67.98
6224;BME280;3145;42.726;23.342;2023-05-09T06:40:46;72488.38;;;-142.70;68.49
6224;BME280;3145;42.726;23.342;2023-05-09T06:43:13;72502.47;;;-142.70;66.98
6224;BME280;3145;42.726;23.342;2023-05-09T06:45:39;72456.16;;;-142.70;67.13
6224;BME280;3145;42.726;23.342;2023-05-09T06:48:06;72355.41;;;-142.70;65.93
6224;BME280;3145;42.726;23.342;2023-05-09T06:50:33;72317.16;;;-142.70;64.59
6224;BME280;3145;42.726;23.342;2023-05-09T06:53:00;72355.41;;;-142.70;63.75
6224;BME280;3145;42.726;23.342;2023-05-09T06:55:26;72367.50;;;-142.70;65.01
6224;BME280;3145;42.726;23.342;2023-05-09T06:57:54;72363.47;;;-142.70;65.01
6224;BME280;3145;42.726;23.342;2023-05-09T07:00:21;72379.59;;;-142.70;64.56
6224;BME280;3145;42.726;23.342;2023-05-09T07:02:48;72425.94;;;-142.70;64.76
6224;BME280;3145;42.726;23.342;2023-05-09T07:05:15;72387.66;;;-142.70;65.49
6224;BME280;3145;42.726;23.342;2023-05-09T07:07:42;72361.47;;;-142.70;64.66
6224;BME280;3145;42.726;23.342;2023-05-09T07:10:09;72383.63;;;-142.70;64.31
6224;BME280;3145;42.726;23.342;2023-05-09T07:12:36;72379.59;;;-142.70;64.76
6224;BME280;3145;42.726;23.342;2023-05-09T07:15:05;72355.41;;;-142.70;64.61
6224;BME280;3145;42.726;23.342;2023-05-09T07:17:31;72383.63;;;-142.70;63.64
6224;BME280;3145;42.726;23.342;2023-05-09T07:19:58;72403.78;;;-142.70;63.87
6224;BME280;3145;42.726;23.342;2023-05-09T07:22:26;72409.81;;;-142.70;63.83
6224;BME280;3145;42.726;23.342;2023-05-09T07:24:53;72423.91;;;-142.70;64.54
6224;BME280;3145;42.726;23.342;2023-05-09T07:27:19;72415.84;;;-142.70;65.04
6224;BME280;3145;42.726;23.342;2023-05-09T07:29:46;72393.69;;;-142.70;65.57
6224;BME280;3145;42.726;23.342;2023-05-09T07:32:14;72405.78;;;-142.70;64.86
6224;BME280;3145;42.726;23.342;2023-05-09T07:34:41;72458.16;;;-142.70;65.63
6224;BME280;3145;42.726;23.342;2023-05-09T07:37:08;72452.13;;;-142.70;65.56
6224;BME280;3145;42.726;23.342;2023-05-09T07:39:35;72488.38;;;-142.70;66.19
6224;BME280;3145;42.726;23.342;2023-05-09T07:42:01;72522.63;;;-142.70;66.22
6224;BME280;3145;42.726;23.342;2023-05-09T07:44:28;72514.56;;;-142.70;67.18
6224;BME280;3145;42.726;23.342;2023-05-09T07:46:55;72504.50;;;-142.70;66.20
6224;BME280;3145;42.726;23.342;2023-05-09T07:49:24;72524.63;;;-142.70;65.55
6224;BME280;3145;42.726;23.342;2023-05-09T07:51:51;72520.59;;;-142.70;67.03
6224;BME280;3145;42.726;23.342;2023-05-09T07:54:18;72524.63;;;-142.70;67.00
6224;BME280;3145;42.726;23.342;2023-05-09T07:56:45;72536.72;;;-142.70;66.48
6224;BME280;3145;42.726;23.342;2023-05-09T07:59:11;72516.56;;;-142.70;66.32
6224;BME280;3145;42.726;23.342;2023-05-09T08:01:38;72512.56;;;-142.70;66.29
6224;BME280;3145;42.726;23.342;2023-05-09T08:04:05;72492.41;;;-142.70;67.19
6224;BME280;3145;42.726;23.342;2023-05-09T08:06:34;72492.41;;;-142.70;67.28
6224;BME280;3145;42.726;23.342;2023-05-09T08:09:01;72506.50;;;-142.70;66.00
6224;BME280;3145;42.726;23.342;2023-05-09T08:11:29;72536.72;;;-142.70;66.42
6224;BME280;3145;42.726;23.342;2023-05-09T08:13:57;72542.75;;;-142.70;66.65
6224;BME280;3145;42.726;23.342;2023-05-09T08:16:24;72532.69;;;-142.70;67.32
6224;BME280;3145;42.726;23.342;2023-05-09T08:18:51;72516.56;;;-142.70;67.09
6224;BME280;3145;42.726;23.342;2023-05-09T08:21:18;72508.53;;;-142.70;65.37
6224;BME280;3145;42.726;23.342;2023-05-09T08:23:47;72536.72;;;-142.70;65.98
6224;BME280;3145;42.726;23.342;2023-05-09T08:26:13;72502.47;;;-142.70;66.65
6224;BME280;3145;42.726;23.342;2023-05-09T08:28:40;72500.47;;;-142.70;65.31
6224;BME280;3145;42.726;23.342;2023-05-09T08:31:07;72504.50;;;-142.70;65.38
6224;BME280;3145;42.726;23.342;2023-05-09T08:33:33;72508.53;;;-142.70;64.22
6224;BME280;3145;42.726;23.342;2023-05-09T08:36:00;72508.53;;;-142.70;64.49
6224;BME280;3145;42.726;23.342;2023-05-09T08:38:27;72510.53;;;-142.70;64.27
6224;BME280;3145;42.726;23.342;2023-05-09T08:41:00;72524.63;;;-142.70;62.95
6224;BME280;3145;42.726;23.342;2023-05-09T08:43:28;72524.63;;;-142.70;62.97
6224;BME280;3145;42.726;23.342;2023-05-09T08:45:57;72524.63;;;-142.70;63.21
6224;BME280;3145;42.726;23.342;2023-05-09T08:48:24;72540.75;;;-142.70;63.40
6224;BME280;3145;42.726;23.342;2023-05-09T08:50:52;72577.00;;;-142.70;64.12
6224;BME280;3145;42.726;23.342;2023-05-09T08:53:20;72572.97;;;-142.70;64.91
6224;BME280;3145;42.726;23.342;2023-05-09T08:55:47;72577.00;;;-142.70;64.40
6224;BME280;3145;42.726;23.342;2023-05-09T08:58:17;72568.97;;;-142.70;64.42
6224;BME280;3145;42.726;23.342;2023-05-09T09:00:47;72566.94;;;-142.70;64.28
6224;BME280;3145;42.726;23.342;2023-05-09T09:03:15;72552.84;;;-142.70;63.86
6224;BME280;3145;42.726;23.342;2023-05-09T09:05:43;72536.72;;;-142.70;62.83
6224;BME280;3145;42.726;23.342;2023-05-09T09:08:10;72546.78;;;-142.70;62.39
6224;BME280;3145;42.726;23.342;2023-05-09T09:10:39;72528.66;;;-142.70;62.49
6224;BME280;3145;42.726;23.342;2023-05-09T09:13:07;72520.59;;;-142.70;62.25
6224;BME280;3145;42.726;23.342;2023-05-09T09:15:37;72500.47;;;-142.70;61.92
6224;BME280;3145;42.726;23.342;2023-05-09T09:18:06;72488.38;;;-142.70;61.28
6224;BME280;3145;42.726;23.342;2023-05-09T09:20:35;72466.22;;;-142.70;61.22
6224;BME280;3145;42.726;23.342;2023-05-09T09:23:03;72460.16;;;-142.70;60.33
6224;BME280;3145;42.726;23.342;2023-05-09T09:25:34;72444.06;;;-142.70;60.77
6224;BME280;3145;42.726;23.342;2023-05-09T09:28:01;72452.13;;;-142.70;60.34
6224;BME280;3145;42.726;23.342;2023-05-09T09:30:28;72464.19;;;-142.70;60.53
6224;BME280;3145;42.726;23.342;2023-05-09T09:32:57;72462.19;;;-142.70;59.83
6224;BME280;3145;42.726;23.342;2023-05-09T09:35:24;72476.28;;;-142.70;59.26
6224;BME280;3145;42.726;23.342;2023-05-09T09:37:55;72468.22;;;-142.70;59.55
6224;BME280;3145;42.726;23.342;2023-05-09T09:40:24;72476.28;;;-142.70;58.67
6224;BME280;3145;42.726;23.342;2023-05-09T09:42:51;72470.25;;;-142.70;58.80
6224;BME280;3145;42.726;23.342;2023-05-09T09:45:18;72452.13;;;-142.70;59.22
6224;BME280;3145;42.726;23.342;2023-05-09T09:47:46;72456.16;;;-142.70;58.49
6224;BME280;3145;42.726;23.342;2023-05-09T09:50:16;72468.22;;;-142.70;60.42
6224;BME280;3145;42.726;23.342;2023-05-09T09:52:48;72450.09;;;-142.70;61.46
6224;BME280;3145;42.726;23.342;2023-05-09T09:55:16;72427.94;;;-142.70;60.79
6224;BME280;3145;42.726;23.342;2023-05-09T09:57:43;72419.88;;;-142.70;60.48
6224;BME280;3145;42.726;23.342;2023-05-09T10:00:11;72387.66;;;-142.70;59.85
6224;BME280;3145;42.726;23.342;2023-05-09T10:02:52;72339.31;;;-142.70;59.82
6224;BME280;3145;42.726;23.342;2023-05-09T10:05:24;72335.28;;;-142.70;59.69
6224;BME280;3145;42.726;23.342;2023-05-09T10:07:56;72343.34;;;-142.70;58.37
6224;BME280;3145;42.726;23.342;2023-05-09T10:10:25;72351.41;;;-142.70;59.28
6224;BME280;3145;42.726;23.342;2023-05-09T10:12:55;72359.44;;;-142.70;58.89
6224;BME280;3145;42.726;23.342;2023-05-09T10:15:22;72359.44;;;-142.70;59.21
6224;BME280;3145;42.726;23.342;2023-05-09T10:17:53;72319.16;;;-142.70;59.05
6224;BME280;3145;42.726;23.342;2023-05-09T10:20:23;72311.09;;;-142.70;57.51
6224;BME280;3145;42.726;23.342;2023-05-09T10:22:53;72311.09;;;-142.70;58.40
6224;BME280;3145;42.726;23.342;2023-05-09T10:25:26;72303.06;;;-142.70;57.41
6224;BME280;3145;42.726;23.342;2023-05-09T10:27:55;72331.25;;;-142.70;57.02
6224;BME280;3145;42.726;23.342;2023-05-09T10:30:27;72325.22;;;-142.70;57.51
6224;BME280;3145;42.726;23.342;2023-05-09T10:33:02;72278.88;;;-142.70;57.99
6224;BME280;3145;42.726;23.342;2023-05-09T10:35:35;72278.88;;;-142.70;55.83
6224;BME280;3145;42.726;23.342;2023-05-09T10:38:03;72290.97;;;-142.70;56.91
6224;BME280;3145;42.726;23.342;2023-05-09T10:40:30;72307.06;;;-142.70;56.72
6224;BME280;3145;42.726;23.342;2023-05-09T10:42:57;72343.34;;;-142.70;57.94
6224;BME280;3145;42.726;23.342;2023-05-09T10:45:24;72359.44;;;-142.70;58.36
6224;BME280;3145;42.726;23.342;2023-05-09T10:47:52;72363.47;;;-142.70;57.46
6224;BME280;3145;42.726;23.342;2023-05-09T10:50:21;72365.50;;;-142.70;58.39
6224;BME280;3145;42.726;23.342;2023-05-09T10:53:05;72389.66;;;-142.70;58.83
6224;BME280;3145;42.726;23.342;2023-05-09T10:55:36;72387.66;;;-142.70;59.35
6224;BME280;3145;42.726;23.342;2023-05-09T10:58:18;72379.59;;;-142.70;59.34
6224;BME280;3145;42.726;23.342;2023-05-09T11:00:46;72369.53;;;-142.70;59.44
6224;BME280;3145;42.726;23.342;2023-05-09T11:03:12;72391.69;;;-142.70;58.96
6224;BME280;3145;42.726;23.342;2023-05-09T11:05:40;72387.66;;;-142.70;58.62
6224;BME280;3145;42.726;23.342;2023-05-09T11:08:24;72391.69;;;-142.70;59.73
6224;BME280;3145;42.726;23.342;2023-05-09T11:10:51;72409.81;;;-142.70;59.53
6224;BME280;3145;42.726;23.342;2023-05-09T11:13:19;72417.88;;;-142.70;59.71
6224;BME280;3145;42.726;23.342;2023-05-09T11:16:03;72431.97;;;-142.70;60.03
6224;BME280;3145;42.726;23.342;2023-05-09T11:18:30;72415.84;;;-142.70;59.62
6224;BME280;3145;42.726;23.342;2023-05-09T11:21:06;72427.94;;;-142.70;59.78
6224;BME280;3145;42.726;23.342;2023-05-09T11:23:36;72427.94;;;-142.70;60.36
6224;BME280;3145;42.726;23.342;2023-05-09T11:26:04;72411.81;;;-142.70;60.22
6224;BME280;3145;42.726;23.342;2023-05-09T11:28:33;72409.81;;;-142.70;60.21
6224;BME280;3145;42.726;23.342;2023-05-09T11:31:10;72393.69;;;-142.70;59.09
6224;BME280;3145;42.726;23.342;2023-05-09T11:33:37;72371.53;;;-142.70;58.97
6224;BME280;3145;42.726;23.342;2023-05-09T11:36:17;72359.44;;;-142.70;58.81
6224;BME280;3145;42.726;23.342;2023-05-09T11:38:46;72327.22;;;-142.70;57.85
6224;BME280;3145;42.726;23.342;2023-05-09T11:41:13;72315.13;;;-142.70;57.77
6224;BME280;3145;42.726;23.342;2023-05-09T11:43:41;72303.06;;;-142.70;56.85
6224;BME280;3145;42.726;23.342;2023-05-09T11:46:09;72319.16;;;-142.70;57.82
6224;BME280;3145;42.726;23.342;2023-05-09T11:48:37;72333.25;;;-142.70;57.55
6224;BME280;3145;42.726;23.342;2023-05-09T11:51:04;72359.44;;;-142.70;57.71
6224;BME280;3145;42.726;23.342;2023-05-09T11:53:31;72369.53;;;-142.70;58.75
6224;BME280;3145;42.726;23.342;2023-05-09T11:56:02;72387.66;;;-142.70;58.43
6224;BME280;3145;42.726;23.342;2023-05-09T11:58:30;72349.38;;;-142.70;57.56
6224;BME280;3145;42.726;23.342;2023-05-09T12:00:57;72327.22;;;-142.70;57.64
6224;BME280;3145;42.726;23.342;2023-05-09T12:03:24;72343.34;;;-142.70;56.60
6224;BME280;3145;42.726;23.342;2023-05-09T12:05:53;72345.34;;;-142.70;56.65
6224;BME280;3145;42.726;23.342;2023-05-09T12:08:20;72377.59;;;-142.70;57.87
6224;BME280;3145;42.726;23.342;2023-05-09T12:10:48;72379.59;;;-142.70;57.64
6224;BME280;3145;42.726;23.342;2023-05-09T12:13:17;72381.59;;;-142.70;58.15
6224;BME280;3145;42.726;23.342;2023-05-09T12:15:43;72389.66;;;-142.70;58.33
6224;BME280;3145;42.726;23.342;2023-05-09T12:18:10;72375.56;;;-142.70;58.80
6224;BME280;3145;42.726;23.342;2023-05-09T12:20:41;72395.72;;;-142.70;58.89
6224;BME280;3145;42.726;23.342;2023-05-09T12:23:09;72387.66;;;-142.70;58.88
6224;BME280;3145;42.726;23.342;2023-05-09T12:25:36;72383.63;;;-142.70;58.66
6224;BME280;3145;42.726;23.342;2023-05-09T12:28:03;72407.81;;;-142.70;58.59
6224;BME280;3145;42.726;23.342;2023-05-09T12:30:32;72444.06;;;-142.70;59.14
6224;BME280;3145;42.726;23.342;2023-05-09T12:32:59;72427.94;;;-142.70;59.46
6224;BME280;3145;42.726;23.342;2023-05-09T12:35:25;72427.94;;;-142.70;59.68
6224;BME280;3145;42.726;23.342;2023-05-09T12:37:55;72456.16;;;-142.70;60.71
6224;BME280;3145;42.726;23.342;2023-05-09T12:40:23;72456.16;;;-142.70;59.88
6224;BME280;3145;42.726;23.342;2023-05-09T12:42:50;72436.00;;;-142.70;60.78
6224;BME280;3145;42.726;23.342;2023-05-09T12:45:21;72436.00;;;-142.70;60.46
6224;BME280;3145;42.726;23.342;2023-05-09T12:47:51;72444.06;;;-142.70;60.63
6224;BME280;3145;42.726;23.342;2023-05-09T12:50:18;72480.31;;;-142.70;60.83
6224;BME280;3145;42.726;23.342;2023-05-09T12:52:49;72472.25;;;-142.70;61.46
6224;BME280;3145;42.726;23.342;2023-05-09T12:55:17;72484.34;;;-142.70;60.71